sensor_id;sensor_type;location;lat;lon;timestamp;pressure;altitude;pressure_sealevel;temperature;humidity
70555;BME280;58104;52.744;15.242;2023-03-03T00:00:42;101494.07;;;18.03;41.87
70555;BME280;58104;52.744;15.242;2023-03-03T00:03:10;101492.24;;;17.88;41.88
70555;BME280;58104;52.744;15.242;2023-03-03T00:05:33;101493.13;;;17.98;41.96
70555;BME280;58104;52.744;15.242;2023-03-03T00:07:58;101489.58;;;17.96;41.91
70555;BME280;58104;52.744;15.242;2023-03-03T00:10:24;101483.45;;;17.91;41.93
70555;BME280;58104;52.744;15.242;2023-03-03T00:12:50;101482.19;;;17.95;41.87
70555;BME280;58104;52.744;15.242;2023-03-03T00:15:16;101481.66;;;17.89;42.08
70555;BME280;58104;52.744;15.242;2023-03-03T00:17:40;101484.55;;;17.94;42.13
70555;BME280;58104;52.744;15.242;2023-03-03T00:22:35;101474.23;;;17.86;42.23
70555;BME280;58104;52.744;15.242;2023-03-03T00:24:59;101473.47;;;17.92;42.28
70555;BME280;58104;52.744;15.242;2023-03-03T00:27:28;101481.98;;;17.92;42.31
70555;BME280;58104;52.744;15.242;2023-03-03T00:29:48;101473.03;;;17.98;42.45
70555;BME280;58104;52.744;15.242;2023-03-03T00:32:22;101471.46;;;18.03;42.40
70555;BME280;58104;52.744;15.242;2023-03-03T00:34:38;101471.27;;;18.02;42.50
70555;BME280;58104;52.744;15.242;2023-03-03T00:37:15;101470.64;;;18.01;42.40
70555;BME280;58104;52.744;15.242;2023-03-03T00:39:33;101472.93;;;18.01;42.54
70555;BME280;58104;52.744;15.242;2023-03-03T00:41:55;101469.34;;;17.98;42.79
70555;BME280;58104;52.744;15.242;2023-03-03T00:44:31;101463.05;;;17.94;42.79
70555;BME280;58104;52.744;15.242;2023-03-03T00:46:45;101465.88;;;17.91;43.00
70555;BME280;58104;52.744;15.242;2023-03-03T00:49:18;101470.97;;;18.01;43.37
70555;BME280;58104;52.744;15.242;2023-03-03T00:51:36;101462.49;;;18.14;42.98
70555;BME280;58104;52.744;15.242;2023-03-03T00:54:01;101458.45;;;18.21;43.02
70555;BME280;58104;52.744;15.242;2023-03-03T00:56:27;101456.85;;;18.24;43.08
70555;BME280;58104;52.744;15.242;2023-03-03T00:58:52;101445.61;;;18.18;43.11
70555;BME280;58104;52.744;15.242;2023-03-03T01:01:18;101446.73;;;18.16;43.01
70555;BME280;58104;52.744;15.242;2023-03-03T01:03:44;101445.90;;;18.23;43.14
70555;BME280;58104;52.744;15.242;2023-03-03T01:06:10;101450.80;;;18.23;43.10
70555;BME280;58104;52.744;15.242;2023-03-03T01:08:34;101454.05;;;18.20;43.28
70555;BME280;58104;52.744;15.242;2023-03-03T01:11:04;101451.63;;;18.24;43.23
70555;BME280;58104;52.744;15.242;2023-03-03T01:13:27;101453.58;;;18.34;43.19
70555;BME280;58104;52.744;15.242;2023-03-03T01:15:50;101450.52;;;18.30;43.22
70555;BME280;58104;52.744;15.242;2023-03-03T01:18:16;101446.76;;;18.28;43.24
70555;BME280;58104;52.744;15.242;2023-03-03T01:20:41;101450.46;;;18.36;43.29
70555;BME280;58104;52.744;15.242;2023-03-03T01:23:07;101446.32;;;18.34;43.38
70555;BME280;58104;52.744;15.242;2023-03-03T01:25:32;101440.28;;;18.33;43.45
70555;BME280;58104;52.744;15.242;2023-03-03T01:27:58;101441.17;;;18.28;43.43
70555;BME280;58104;52.744;15.242;2023-03-03T01:30:23;101440.09;;;18.27;43.67
70555;BME280;58104;52.744;15.242;2023-03-03T01:32:48;101439.92;;;18.23;43.69
70555;BME280;58104;52.744;15.242;2023-03-03T01:35:14;101440.12;;;18.23;43.70
70555;BME280;58104;52.744;15.242;2023-03-03T01:37:39;101441.41;;;18.24;43.90
70555;BME280;58104;52.744;15.242;2023-03-03T01:40:10;101437.53;;;18.22;43.81
70555;BME280;58104;52.744;15.242;2023-03-03T01:42:30;101433.25;;;18.23;43.79
70555;BME280;58104;52.744;15.242;2023-03-03T01:47:21;101438.32;;;18.24;43.96
70555;BME280;58104;52.744;15.242;2023-03-03T01:49:50;101437.57;;;18.24;43.89
70555;BME280;58104;52.744;15.242;2023-03-03T01:52:16;101436.83;;;18.22;43.99
70555;BME280;58104;52.744;15.242;2023-03-03T01:54:39;101432.21;;;18.18;44.21
70555;BME280;58104;52.744;15.242;2023-03-03T01:57:05;101431.18;;;18.26;44.14
70555;BME280;58104;52.744;15.242;2023-03-03T01:59:31;101429.40;;;18.08;44.41
70555;BME280;58104;52.744;15.242;2023-03-03T02:01:53;101427.93;;;18.11;44.18
70555;BME280;58104;52.744;15.242;2023-03-03T02:04:19;101426.32;;;18.10;44.42
70555;BME280;58104;52.744;15.242;2023-03-03T02:06:48;101429.99;;;18.10;44.42
70555;BME280;58104;52.744;15.242;2023-03-03T02:09:13;101426.45;;;18.03;44.69
70555;BME280;58104;52.744;15.242;2023-03-03T02:11:37;101430.06;;;18.08;44.55
70555;BME280;58104;52.744;15.242;2023-03-03T02:14:00;101422.91;;;18.09;44.62
70555;BME280;58104;52.744;15.242;2023-03-03T02:16:26;101421.70;;;18.09;44.53
70555;BME280;58104;52.744;15.242;2023-03-03T02:18:51;101420.48;;;18.07;44.81
70555;BME280;58104;52.744;15.242;2023-03-03T02:21:19;101425.05;;;18.19;44.82
70555;BME280;58104;52.744;15.242;2023-03-03T02:23:48;101424.08;;;18.22;44.88
70555;BME280;58104;52.744;15.242;2023-03-03T02:26:09;101424.83;;;18.20;44.87
70555;BME280;58104;52.744;15.242;2023-03-03T02:28:35;101426.21;;;18.20;44.87
70555;BME280;58104;52.744;15.242;2023-03-03T02:30:59;101425.05;;;18.16;45.03
70555;BME280;58104;52.744;15.242;2023-03-03T02:33:24;101429.92;;;18.18;45.03
70555;BME280;58104;52.744;15.242;2023-03-03T02:35:50;101428.32;;;18.23;44.82
70555;BME280;58104;52.744;15.242;2023-03-03T02:38:19;101432.28;;;18.22;44.86
70555;BME280;58104;52.744;15.242;2023-03-03T02:40:43;101430.90;;;18.16;45.02
70555;BME280;58104;52.744;15.242;2023-03-03T02:43:06;101433.80;;;18.18;45.09
70555;BME280;58104;52.744;15.242;2023-03-03T02:45:31;101439.11;;;18.24;44.99
70555;BME280;58104;52.744;15.242;2023-03-03T02:47:56;101437.94;;;18.28;44.83
70555;BME280;58104;52.744;15.242;2023-03-03T02:50:21;101443.67;;;18.35;44.74
70555;BME280;58104;52.744;15.242;2023-03-03T02:52:47;101441.96;;;18.33;44.79
70555;BME280;58104;52.744;15.242;2023-03-03T02:55:12;101443.09;;;18.40;44.69
70555;BME280;58104;52.744;15.242;2023-03-03T02:57:38;101445.66;;;18.38;44.65
70555;BME280;58104;52.744;15.242;2023-03-03T03:00:05;101443.83;;;18.41;44.82
70555;BME280;58104;52.744;15.242;2023-03-03T03:02:29;101438.34;;;18.35;44.96
70555;BME280;58104;52.744;15.242;2023-03-03T03:04:54;101438.53;;;18.25;45.10
70555;BME280;58104;52.744;15.242;2023-03-03T03:07:19;101437.81;;;18.12;45.10
70555;BME280;58104;52.744;15.242;2023-03-03T03:09:45;101429.26;;;18.21;45.28
70555;BME280;58104;52.744;15.242;2023-03-03T03:12:10;101433.72;;;18.20;45.43
70555;BME280;58104;52.744;15.242;2023-03-03T03:14:36;101438.80;;;18.21;45.37
70555;BME280;58104;52.744;15.242;2023-03-03T03:17:01;101439.46;;;18.20;45.54
70555;BME280;58104;52.744;15.242;2023-03-03T03:19:27;101440.85;;;18.15;45.58
70555;BME280;58104;52.744;15.242;2023-03-03T03:21:52;101442.30;;;18.21;45.58
70555;BME280;58104;52.744;15.242;2023-03-03T03:24:17;101444.13;;;18.20;45.59
70555;BME280;58104;52.744;15.242;2023-03-03T03:26:43;101444.38;;;18.17;45.49
70555;BME280;58104;52.744;15.242;2023-03-03T03:29:08;101443.02;;;18.35;45.77
70555;BME280;58104;52.744;15.242;2023-03-03T03:31:34;101450.54;;;18.48;45.40
70555;BME280;58104;52.744;15.242;2023-03-03T03:33:59;101437.66;;;18.46;45.25
70555;BME280;58104;52.744;15.242;2023-03-03T03:36:25;101429.26;;;18.52;45.15
70555;BME280;58104;52.744;15.242;2023-03-03T03:38:50;101426.22;;;18.51;45.09
70555;BME280;58104;52.744;15.242;2023-03-03T03:41:15;101415.76;;;18.57;45.10
70555;BME280;58104;52.744;15.242;2023-03-03T03:43:41;101415.06;;;18.59;44.88
70555;BME280;58104;52.744;15.242;2023-03-03T03:46:07;101406.79;;;18.52;44.98
70555;BME280;58104;52.744;15.242;2023-03-03T03:48:32;101408.60;;;18.59;44.91
70555;BME280;58104;52.744;15.242;2023-03-03T03:50:57;101399.85;;;18.55;45.06
70555;BME280;58104;52.744;15.242;2023-03-03T03:53:22;101408.72;;;18.50;45.29
70555;BME280;58104;52.744;15.242;2023-03-03T03:55:48;101412.93;;;18.52;45.41
70555;BME280;58104;52.744;15.242;2023-03-03T03:58:13;101421.05;;;18.46;45.50
70555;BME280;58104;52.744;15.242;2023-03-03T04:00:39;101418.06;;;18.48;45.59
70555;BME280;58104;52.744;15.242;2023-03-03T04:03:04;101401.06;;;18.42;45.69
70555;BME280;58104;52.744;15.242;2023-03-03T04:05:29;101400.76;;;18.48;45.86
70555;BME280;58104;52.744;15.242;2023-03-03T04:07:55;101406.02;;;18.40;46.07
70555;BME280;58104;52.744;15.242;2023-03-03T04:10:20;101398.62;;;18.45;45.89
70555;BME280;58104;52.744;15.242;2023-03-03T04:12:46;101395.77;;;18.52;46.03
70555;BME280;58104;52.744;15.242;2023-03-03T04:15:13;101395.16;;;18.43;46.03
70555;BME280;58104;52.744;15.242;2023-03-03T04:17:37;101397.97;;;18.42;46.12
70555;BME280;58104;52.744;15.242;2023-03-03T04:20:02;101387.25;;;18.42;46.03
70555;BME280;58104;52.744;15.242;2023-03-03T04:22:28;101387.03;;;18.43;45.99
70555;BME280;58104;52.744;15.242;2023-03-03T04:24:53;101394.95;;;18.43;46.07
70555;BME280;58104;52.744;15.242;2023-03-03T04:27:18;101399.28;;;18.43;46.11
70555;BME280;58104;52.744;15.242;2023-03-03T04:29:44;101394.15;;;18.41;46.19
70555;BME280;58104;52.744;15.242;2023-03-03T04:32:09;101393.01;;;18.50;46.06
70555;BME280;58104;52.744;15.242;2023-03-03T04:34:34;101389.71;;;18.47;46.11
70555;BME280;58104;52.744;15.242;2023-03-03T04:37:00;101389.64;;;18.44;46.21
70555;BME280;58104;52.744;15.242;2023-03-03T04:39:25;101390.18;;;18.45;46.14
70555;BME280;58104;52.744;15.242;2023-03-03T04:41:51;101387.61;;;18.45;46.25
70555;BME280;58104;52.744;15.242;2023-03-03T04:44:16;101387.58;;;18.48;46.46
70555;BME280;58104;52.744;15.242;2023-03-03T04:46:42;101387.60;;;18.48;46.27
70555;BME280;58104;52.744;15.242;2023-03-03T04:49:07;101380.52;;;18.47;46.32
70555;BME280;58104;52.744;15.242;2023-03-03T04:51:32;101382.28;;;18.50;46.30
70555;BME280;58104;52.744;15.242;2023-03-03T04:53:57;101381.27;;;18.49;46.20
70555;BME280;58104;52.744;15.242;2023-03-03T04:56:23;101384.45;;;18.48;46.13
70555;BME280;58104;52.744;15.242;2023-03-03T04:58:48;101387.52;;;18.46;46.07
70555;BME280;58104;52.744;15.242;2023-03-03T05:01:13;101391.85;;;18.53;46.21
70555;BME280;58104;52.744;15.242;2023-03-03T05:03:39;101393.37;;;18.49;46.26
70555;BME280;58104;52.744;15.242;2023-03-03T05:06:05;101395.74;;;18.46;46.17
70555;BME280;58104;52.744;15.242;2023-03-03T05:08:30;101393.06;;;18.39;46.41
70555;BME280;58104;52.744;15.242;2023-03-03T05:10:55;101378.00;;;18.42;46.46
70555;BME280;58104;52.744;15.242;2023-03-03T05:13:21;101369.33;;;18.44;46.25
70555;BME280;58104;52.744;15.242;2023-03-03T05:15:49;101371.30;;;18.43;46.33
70555;BME280;58104;52.744;15.242;2023-03-03T05:18:11;101375.15;;;18.43;46.39
70555;BME280;58104;52.744;15.242;2023-03-03T05:20:39;101369.04;;;18.40;46.37
70555;BME280;58104;52.744;15.242;2023-03-03T05:23:02;101366.35;;;18.43;46.31
70555;BME280;58104;52.744;15.242;2023-03-03T05:25:28;101370.21;;;18.43;46.48
70555;BME280;58104;52.744;15.242;2023-03-03T05:27:53;101377.98;;;18.35;46.30
70555;BME280;58104;52.744;15.242;2023-03-03T05:30:19;101379.73;;;18.44;46.23
70555;BME280;58104;52.744;15.242;2023-03-03T05:32:44;101388.96;;;18.47;46.34
70555;BME280;58104;52.744;15.242;2023-03-03T05:35:09;101397.06;;;18.40;46.54
70555;BME280;58104;52.744;15.242;2023-03-03T05:37:35;101398.84;;;18.47;46.54
70555;BME280;58104;52.744;15.242;2023-03-03T05:40:00;101396.84;;;18.39;46.38
70555;BME280;58104;52.744;15.242;2023-03-03T05:42:26;101396.69;;;18.52;46.30
70555;BME280;58104;52.744;15.242;2023-03-03T05:44:51;101401.73;;;18.47;46.66
70555;BME280;58104;52.744;15.242;2023-03-03T05:47:17;101398.05;;;18.42;46.72
70555;BME280;58104;52.744;15.242;2023-03-03T05:49:42;101393.64;;;18.44;46.58
70555;BME280;58104;52.744;15.242;2023-03-03T05:52:07;101399.41;;;18.43;46.51
70555;BME280;58104;52.744;15.242;2023-03-03T05:54:33;101406.11;;;18.44;46.64
70555;BME280;58104;52.744;15.242;2023-03-03T05:56:58;101406.98;;;18.44;46.56
70555;BME280;58104;52.744;15.242;2023-03-03T05:59:24;101414.87;;;18.48;46.48
70555;BME280;58104;52.744;15.242;2023-03-03T06:01:49;101410.24;;;18.56;46.83
70555;BME280;58104;52.744;15.242;2023-03-03T06:04:14;101406.91;;;18.67;47.13
70555;BME280;58104;52.744;15.242;2023-03-03T06:06:40;101412.50;;;18.62;46.48
70555;BME280;58104;52.744;15.242;2023-03-03T06:09:05;101419.14;;;18.44;46.37
70555;BME280;58104;52.744;15.242;2023-03-03T06:11:31;101427.10;;;18.54;45.32
70555;BME280;58104;52.744;15.242;2023-03-03T06:13:56;101429.81;;;18.68;45.48
70555;BME280;58104;52.744;15.242;2023-03-03T06:16:22;101431.06;;;18.64;45.28
70555;BME280;58104;52.744;15.242;2023-03-03T06:18:47;101442.85;;;18.41;45.66
70555;BME280;58104;52.744;15.242;2023-03-03T06:21:12;101449.25;;;18.39;43.76
70555;BME280;58104;52.744;15.242;2023-03-03T06:23:38;101458.62;;;18.55;44.08
70555;BME280;58104;52.744;15.242;2023-03-03T06:26:04;101462.87;;;18.59;44.23
70555;BME280;58104;52.744;15.242;2023-03-03T06:28:29;101462.80;;;18.61;44.28
70555;BME280;58104;52.744;15.242;2023-03-03T06:30:54;101458.08;;;18.55;44.50
70555;BME280;58104;52.744;15.242;2023-03-03T06:33:20;101459.29;;;18.50;44.52
70555;BME280;58104;52.744;15.242;2023-03-03T06:35:49;101459.33;;;18.61;44.59
70555;BME280;58104;52.744;15.242;2023-03-03T06:38:10;101457.04;;;18.63;44.72
70555;BME280;58104;52.744;15.242;2023-03-03T06:40:36;101458.85;;;18.63;44.76
70555;BME280;58104;52.744;15.242;2023-03-03T06:43:01;101457.98;;;18.61;44.90
70555;BME280;58104;52.744;15.242;2023-03-03T06:45:26;101452.66;;;18.60;45.05
70555;BME280;58104;52.744;15.242;2023-03-03T06:47:52;101451.80;;;18.68;44.87
70555;BME280;58104;52.744;15.242;2023-03-03T06:50:19;101448.79;;;18.51;44.95
70555;BME280;58104;52.744;15.242;2023-03-03T06:52:43;101444.65;;;18.50;44.22
70555;BME280;58104;52.744;15.242;2023-03-03T06:55:12;101447.46;;;18.57;43.63
70555;BME280;58104;52.744;15.242;2023-03-03T06:57:33;101451.77;;;18.62;43.90
70555;BME280;58104;52.744;15.242;2023-03-03T07:02:24;101455.01;;;18.68;44.28
70555;BME280;58104;52.744;15.242;2023-03-03T07:04:49;101455.16;;;18.69;44.27
70555;BME280;58104;52.744;15.242;2023-03-03T07:07:18;101454.69;;;18.70;44.31
70555;BME280;58104;52.744;15.242;2023-03-03T07:09:43;101451.23;;;18.69;44.48
70555;BME280;58104;52.744;15.242;2023-03-03T07:12:10;101447.54;;;18.70;44.55
70555;BME280;58104;52.744;15.242;2023-03-03T07:14:36;101446.63;;;18.83;45.18
70555;BME280;58104;52.744;15.242;2023-03-03T07:16:59;101452.27;;;18.77;45.09
70555;BME280;58104;52.744;15.242;2023-03-03T07:19:29;101455.25;;;18.87;45.35
70555;BME280;58104;52.744;15.242;2023-03-03T07:21:47;101454.90;;;18.92;45.39
70555;BME280;58104;52.744;15.242;2023-03-03T07:24:24;101453.93;;;18.91;44.99
70555;BME280;58104;52.744;15.242;2023-03-03T07:26:38;101451.19;;;18.80;45.04
70555;BME280;58104;52.744;15.242;2023-03-03T07:29:12;101452.90;;;18.86;45.27
70555;BME280;58104;52.744;15.242;2023-03-03T07:31:33;101460.10;;;18.77;45.26
70555;BME280;58104;52.744;15.242;2023-03-03T07:33:54;101459.57;;;18.74;45.31
70555;BME280;58104;52.744;15.242;2023-03-03T07:36:27;101463.09;;;18.66;45.48
70555;BME280;58104;52.744;15.242;2023-03-03T07:38:50;101470.37;;;18.84;45.02
70555;BME280;58104;52.744;15.242;2023-03-03T07:41:14;101477.72;;;18.50;43.16
70555;BME280;58104;52.744;15.242;2023-03-03T07:43:37;101476.90;;;18.09;41.85
70555;BME280;58104;52.744;15.242;2023-03-03T07:48:30;101479.82;;;18.38;42.81
70555;BME280;58104;52.744;15.242;2023-03-03T07:50:52;101484.55;;;18.74;41.91
70555;BME280;58104;52.744;15.242;2023-03-03T07:53:23;101489.96;;;18.85;41.33
70555;BME280;58104;52.744;15.242;2023-03-03T07:55:42;101489.26;;;18.95;40.20
70555;BME280;58104;52.744;15.242;2023-03-03T07:58:15;101487.44;;;19.01;39.58
70555;BME280;58104;52.744;15.242;2023-03-03T08:03:01;101494.61;;;19.02;39.72
70555;BME280;58104;52.744;15.242;2023-03-03T08:05:30;101492.06;;;18.97;39.76
70555;BME280;58104;52.744;15.242;2023-03-03T08:07:49;101490.32;;;18.77;37.44
70555;BME280;58104;52.744;15.242;2023-03-03T08:12:40;101487.79;;;18.30;36.18
70555;BME280;58104;52.744;15.242;2023-03-03T08:15:16;101490.87;;;18.25;35.28
70555;BME280;58104;52.744;15.242;2023-03-03T08:17:35;101492.78;;;18.08;35.00
70555;BME280;58104;52.744;15.242;2023-03-03T08:19:57;101494.22;;;17.93;33.79
70555;BME280;58104;52.744;15.242;2023-03-03T08:22:30;101494.69;;;17.94;34.50
70555;BME280;58104;52.744;15.242;2023-03-03T08:24:47;101488.28;;;17.65;35.71
70555;BME280;58104;52.744;15.242;2023-03-03T08:27:13;101490.40;;;17.65;34.57
70555;BME280;58104;52.744;15.242;2023-03-03T08:29:38;101489.45;;;17.59;34.48
70555;BME280;58104;52.744;15.242;2023-03-03T08:32:04;101487.87;;;17.66;36.60
70555;BME280;58104;52.744;15.242;2023-03-03T08:34:29;101488.31;;;17.91;37.02
70555;BME280;58104;52.744;15.242;2023-03-03T08:36:55;101489.80;;;17.97;37.80
70555;BME280;58104;52.744;15.242;2023-03-03T08:39:20;101490.17;;;18.13;38.65
70555;BME280;58104;52.744;15.242;2023-03-03T08:41:45;101483.85;;;18.25;39.12
70555;BME280;58104;52.744;15.242;2023-03-03T08:44:11;101482.01;;;18.29;39.48
70555;BME280;58104;52.744;15.242;2023-03-03T08:46:37;101487.08;;;18.41;39.73
70555;BME280;58104;52.744;15.242;2023-03-03T08:49:02;101489.39;;;18.35;39.73
70555;BME280;58104;52.744;15.242;2023-03-03T08:51:27;101492.39;;;18.41;39.78
70555;BME280;58104;52.744;15.242;2023-03-03T08:53:53;101488.50;;;18.31;39.78
70555;BME280;58104;52.744;15.242;2023-03-03T08:56:18;101492.23;;;18.39;39.78
70555;BME280;58104;52.744;15.242;2023-03-03T08:58:43;101489.90;;;18.36;39.76
70555;BME280;58104;52.744;15.242;2023-03-03T09:01:09;101487.54;;;18.49;39.79
70555;BME280;58104;52.744;15.242;2023-03-03T09:03:34;101491.65;;;18.45;39.86
70555;BME280;58104;52.744;15.242;2023-03-03T09:06:00;101488.30;;;18.61;39.94
70555;BME280;58104;52.744;15.242;2023-03-03T09:08:25;101491.04;;;18.65;40.23
70555;BME280;58104;52.744;15.242;2023-03-03T09:10:50;101489.16;;;18.67;40.38
70555;BME280;58104;52.744;15.242;2023-03-03T09:13:18;101486.76;;;18.78;40.53
70555;BME280;58104;52.744;15.242;2023-03-03T09:15:42;101480.44;;;18.80;40.65
70555;BME280;58104;52.744;15.242;2023-03-03T09:18:14;101480.35;;;18.69;40.48
70555;BME280;58104;52.744;15.242;2023-03-03T09:20:34;101479.63;;;18.80;40.98
70555;BME280;58104;52.744;15.242;2023-03-03T09:22:58;101483.62;;;18.90;41.25
70555;BME280;58104;52.744;15.242;2023-03-03T09:25:30;101485.51;;;18.93;41.55
70555;BME280;58104;52.744;15.242;2023-03-03T09:27:48;101489.37;;;18.91;41.67
70555;BME280;58104;52.744;15.242;2023-03-03T09:32:39;101489.66;;;18.95;42.12
70555;BME280;58104;52.744;15.242;2023-03-03T09:37:34;101494.89;;;19.02;42.36
70555;BME280;58104;52.744;15.242;2023-03-03T09:39:56;101493.87;;;19.07;42.39
70555;BME280;58104;52.744;15.242;2023-03-03T09:45:00;101489.74;;;19.14;43.41
70555;BME280;58104;52.744;15.242;2023-03-03T09:47:22;101490.33;;;19.21;43.36
70555;BME280;58104;52.744;15.242;2023-03-03T09:49:41;101489.33;;;19.37;43.45
70555;BME280;58104;52.744;15.242;2023-03-03T09:52:10;101493.18;;;19.37;43.32
70555;BME280;58104;52.744;15.242;2023-03-03T09:54:37;101498.78;;;19.36;43.35
70555;BME280;58104;52.744;15.242;2023-03-03T09:56:58;101497.28;;;19.36;43.49
70555;BME280;58104;52.744;15.242;2023-03-03T09:59:26;101497.63;;;19.37;43.58
70555;BME280;58104;52.744;15.242;2023-03-03T10:01:59;101493.03;;;19.59;43.05
70555;BME280;58104;52.744;15.242;2023-03-03T10:04:18;101490.26;;;19.45;43.50
70555;BME280;58104;52.744;15.242;2023-03-03T10:06:38;101494.01;;;19.42;43.68
70555;BME280;58104;52.744;15.242;2023-03-03T10:09:12;101492.95;;;19.41;43.77
70555;BME280;58104;52.744;15.242;2023-03-03T10:11:31;101492.76;;;19.52;43.61
70555;BME280;58104;52.744;15.242;2023-03-03T10:14:00;101491.40;;;19.46;43.86
70555;BME280;58104;52.744;15.242;2023-03-03T10:16:26;101490.26;;;19.50;43.78
70555;BME280;58104;52.744;15.242;2023-03-03T10:18:48;101495.69;;;19.63;43.58
70555;BME280;58104;52.744;15.242;2023-03-03T10:21:10;101494.90;;;19.57;43.94
70555;BME280;58104;52.744;15.242;2023-03-03T10:23:44;101495.53;;;19.57;43.84
70555;BME280;58104;52.744;15.242;2023-03-03T10:26:06;101499.01;;;19.47;44.19
70555;BME280;58104;52.744;15.242;2023-03-03T10:30:56;101501.14;;;19.57;43.96
70555;BME280;58104;52.744;15.242;2023-03-03T10:33:20;101498.86;;;19.18;41.19
70555;BME280;58104;52.744;15.242;2023-03-03T10:35:49;101498.11;;;18.87;39.99
70555;BME280;58104;52.744;15.242;2023-03-03T10:38:13;101501.03;;;18.77;38.20
70555;BME280;58104;52.744;15.242;2023-03-03T10:40:34;101499.01;;;18.82;37.19
70555;BME280;58104;52.744;15.242;2023-03-03T10:43:11;101496.07;;;18.74;35.92
70555;BME280;58104;52.744;15.242;2023-03-03T10:45:31;101493.07;;;17.34;34.23
70555;BME280;58104;52.744;15.242;2023-03-03T10:47:55;101491.25;;;16.77;34.99
70555;BME280;58104;52.744;15.242;2023-03-03T10:50:17;101490.03;;;16.87;33.81
70555;BME280;58104;52.744;15.242;2023-03-03T10:52:43;101486.95;;;16.17;36.09
70555;BME280;58104;52.744;15.242;2023-03-03T10:55:16;101490.03;;;17.21;37.88
70555;BME280;58104;52.744;15.242;2023-03-03T10:57:35;101490.99;;;17.46;37.87
70555;BME280;58104;52.744;15.242;2023-03-03T11:00:03;101485.51;;;17.77;36.80
70555;BME280;58104;52.744;15.242;2023-03-03T11:02:25;101485.34;;;17.98;36.75
70555;BME280;58104;52.744;15.242;2023-03-03T11:04:58;101484.35;;;18.25;36.83
70555;BME280;58104;52.744;15.242;2023-03-03T11:07:13;101481.49;;;18.45;36.67
70555;BME280;58104;52.744;15.242;2023-03-03T11:09:48;101477.52;;;18.52;36.64
70555;BME280;58104;52.744;15.242;2023-03-03T11:12:11;101472.73;;;18.61;37.53
70555;BME280;58104;52.744;15.242;2023-03-03T11:14:32;101471.36;;;18.73;37.96
70555;BME280;58104;52.744;15.242;2023-03-03T11:16:58;101463.01;;;18.82;38.04
70555;BME280;58104;52.744;15.242;2023-03-03T11:19:26;101459.58;;;18.98;38.33
70555;BME280;58104;52.744;15.242;2023-03-03T11:21:46;101457.30;;;19.04;38.48
70555;BME280;58104;52.744;15.242;2023-03-03T11:24:16;101457.87;;;19.15;38.43
70555;BME280;58104;52.744;15.242;2023-03-03T11:26:45;101459.33;;;19.27;38.53
70555;BME280;58104;52.744;15.242;2023-03-03T11:29:11;101462.84;;;19.26;39.30
70555;BME280;58104;52.744;15.242;2023-03-03T11:31:30;101460.94;;;19.21;39.72
70555;BME280;58104;52.744;15.242;2023-03-03T11:33:57;101460.72;;;19.10;39.98
70555;BME280;58104;52.744;15.242;2023-03-03T11:36:20;101460.01;;;19.29;39.98
70555;BME280;58104;52.744;15.242;2023-03-03T11:38:49;101458.15;;;19.24;40.14
70555;BME280;58104;52.744;15.242;2023-03-03T11:41:13;101462.80;;;19.28;40.35
70555;BME280;58104;52.744;15.242;2023-03-03T11:43:38;101460.33;;;19.28;40.31
70555;BME280;58104;52.744;15.242;2023-03-03T11:46:00;101461.62;;;19.49;40.34
70555;BME280;58104;52.744;15.242;2023-03-03T11:48:31;101458.20;;;19.46;40.60
70555;BME280;58104;52.744;15.242;2023-03-03T11:50:56;101463.06;;;19.52;40.49
70555;BME280;58104;52.744;15.242;2023-03-03T11:53:23;101462.12;;;19.48;40.80
70555;BME280;58104;52.744;15.242;2023-03-03T11:55:41;101460.56;;;19.61;40.74
70555;BME280;58104;52.744;15.242;2023-03-03T11:58:11;101456.82;;;19.66;40.68
70555;BME280;58104;52.744;15.242;2023-03-03T12:00:34;101453.62;;;19.74;40.73
70555;BME280;58104;52.744;15.242;2023-03-03T12:03:09;101453.87;;;19.72;40.92
70555;BME280;58104;52.744;15.242;2023-03-03T12:05:35;101451.64;;;19.88;40.96
70555;BME280;58104;52.744;15.242;2023-03-03T12:07:54;101448.37;;;19.76;40.99
70555;BME280;58104;52.744;15.242;2023-03-03T12:10:20;101446.80;;;19.83;41.06
70555;BME280;58104;52.744;15.242;2023-03-03T12:12:42;101448.27;;;19.80;41.28
70555;BME280;58104;52.744;15.242;2023-03-03T12:15:12;101442.46;;;19.55;38.87
70555;BME280;58104;52.744;15.242;2023-03-03T12:17:45;101434.98;;;18.84;38.11
70555;BME280;58104;52.744;15.242;2023-03-03T12:19:58;101435.07;;;18.47;38.13
70555;BME280;58104;52.744;15.242;2023-03-03T12:22:27;101423.40;;;18.64;40.08
70555;BME280;58104;52.744;15.242;2023-03-03T12:25:00;101428.57;;;18.86;39.77
70555;BME280;58104;52.744;15.242;2023-03-03T12:27:18;101428.05;;;19.00;39.47
70555;BME280;58104;52.744;15.242;2023-03-03T12:29:41;101429.49;;;19.00;39.61
70555;BME280;58104;52.744;15.242;2023-03-03T12:32:12;101425.58;;;19.03;39.69
70555;BME280;58104;52.744;15.242;2023-03-03T12:34:33;101418.82;;;18.96;39.95
70555;BME280;58104;52.744;15.242;2023-03-03T12:37:01;101411.78;;;19.01;39.67
70555;BME280;58104;52.744;15.242;2023-03-03T12:39:31;101408.29;;;19.10;39.88
70555;BME280;58104;52.744;15.242;2023-03-03T12:41:48;101411.99;;;19.03;40.03
70555;BME280;58104;52.744;15.242;2023-03-03T12:44:16;101401.49;;;19.02;40.00
70555;BME280;58104;52.744;15.242;2023-03-03T12:46:44;101403.76;;;19.02;40.14
70555;BME280;58104;52.744;15.242;2023-03-03T12:49:01;101394.89;;;19.06;40.38
70555;BME280;58104;52.744;15.242;2023-03-03T12:51:34;101397.84;;;18.97;40.45
70555;BME280;58104;52.744;15.242;2023-03-03T12:56:23;101402.02;;;19.18;39.93